createdAt,value
2023-05-16T00:02:20.891Z,60.14
2023-05-16T00:05:08.184Z,57.23
2023-05-16T00:07:54.315Z,59.53
2023-05-16T00:10:40.949Z,64.80
2023-05-16T00:13:29.776Z,62.50
2023-05-16T00:16:16.154Z,59.04
2023-05-16T00:19:02.806Z,59.14
2023-05-16T00:21:49.447Z,64.92
2023-05-16T00:24:35.981Z,62.94
2023-05-16T00:27:22.716Z,60.42
2023-05-16T00:30:09.918Z,58.93
2023-05-16T00:32:56.646Z,56.31
2023-05-16T00:35:43.356Z,61.22
2023-05-16T00:38:31.320Z,64.75
2023-05-16T00:41:19.862Z,61.52
2023-05-16T00:44:07.015Z,58.50
2023-05-16T00:46:54.417Z,60.99
2023-05-16T00:49:41.892Z,64.49
2023-05-16T00:52:28.892Z,60.13
2023-05-16T00:55:15.922Z,59.91
2023-05-16T00:58:02.776Z,65.23
2023-05-16T01:01:08.892Z,62.85
2023-05-16T01:03:56.281Z,60.36
2023-05-16T01:06:43.852Z,58.39
2023-05-16T01:09:31.375Z,61.85
2023-05-16T01:12:23.988Z,65.46
2023-05-16T01:15:21.811Z,62.30
2023-05-16T01:18:41.065Z,58.89
2023-05-16T01:21:45.220Z,64.59
2023-05-16T01:24:54.416Z,62.68
2023-05-16T01:27:41.484Z,58.85
2023-05-16T01:30:33.269Z,63.40
2023-05-16T01:33:20.028Z,62.65
2023-05-16T01:36:28.985Z,60.58
2023-05-16T01:39:22.645Z,59.35
2023-05-16T01:42:14.381Z,57.96
2023-05-16T01:45:26.344Z,63.03
2023-05-16T01:48:24.233Z,63.83
2023-05-16T01:51:12.692Z,59.19
2023-05-16T01:54:06.254Z,59.41
2023-05-16T01:56:56.108Z,64.39
2023-05-16T01:59:44.267Z,61.05
2023-05-16T02:02:31.726Z,57.92
2023-05-16T02:05:18.517Z,63.07
2023-05-16T02:08:05.657Z,62.29
2023-05-16T02:10:52.794Z,58.91
2023-05-16T02:13:41.132Z,61.24
2023-05-16T02:16:29.563Z,66.14
2023-05-16T02:19:18.499Z,60.88
2023-05-16T02:22:05.017Z,58.39
2023-05-16T02:24:52.964Z,63.48
2023-05-16T02:27:39.152Z,64.10
2023-05-16T02:30:25.662Z,58.69
2023-05-16T02:33:12.969Z,61.29
2023-05-16T02:35:59.781Z,65.93
2023-05-16T02:38:46.186Z,61.05
2023-05-16T02:41:33.216Z,58.35
2023-05-16T02:44:19.538Z,61.50
2023-05-16T02:47:05.878Z,66.12
2023-05-16T02:49:52.517Z,60.68
2023-05-16T02:52:38.869Z,58.82
2023-05-16T02:55:26.387Z,58.91
2023-05-16T02:58:13.072Z,63.09
2023-05-16T03:00:59.899Z,64.63
2023-05-16T03:03:46.623Z,60.28
2023-05-16T03:06:33.228Z,56.75
2023-05-16T03:09:19.665Z,60.42
2023-05-16T03:12:07.177Z,66.16
2023-05-16T03:14:54.778Z,59.32
2023-05-16T03:17:41.833Z,60.39
2023-05-16T03:20:28.702Z,64.32
2023-05-16T03:23:16.453Z,60.92
2023-05-16T03:26:03.191Z,58.58
2023-05-16T03:28:51.615Z,63.19
2023-05-16T03:31:38.389Z,65.79
2023-05-16T03:34:24.953Z,61.65
2023-05-16T03:37:11.642Z,57.91
2023-05-16T03:39:57.948Z,58.68
2023-05-16T03:42:44.727Z,64.01
2023-05-16T03:45:31.746Z,62.35
2023-05-16T03:48:18.163Z,58.95
2023-05-16T03:51:04.663Z,59.57
2023-05-16T03:53:51.109Z,64.19
2023-05-16T03:56:37.375Z,61.46
2023-05-16T03:59:24.245Z,58.28
2023-05-16T04:02:11.020Z,61.91
2023-05-16T04:04:57.485Z,63.14
2023-05-16T04:07:44.163Z,59.98
2023-05-16T04:10:30.515Z,58.34
2023-05-16T04:13:16.981Z,62.19
2023-05-16T04:16:03.822Z,65.39
2023-05-16T04:18:50.362Z,61.00
2023-05-16T04:21:36.896Z,58.19
2023-05-16T04:24:26.519Z,60.60
2023-05-16T04:27:13.182Z,65.11
2023-05-16T04:29:59.976Z,60.52
2023-05-16T04:32:47.388Z,59.72
2023-05-16T04:35:34.182Z,64.44
2023-05-16T04:38:21.172Z,60.22
2023-05-16T04:41:07.797Z,58.05
2023-05-16T04:43:54.404Z,62.67
2023-05-16T04:46:41.744Z,63.03
2023-05-16T04:49:28.576Z,57.79
2023-05-16T04:52:15.357Z,59.73
2023-05-16T04:55:01.951Z,63.47
2023-05-16T04:57:48.399Z,60.35
2023-05-16T05:00:34.634Z,57.40
2023-05-16T05:03:21.775Z,61.16
2023-05-16T05:06:08.602Z,64.76
2023-05-16T05:08:55.042Z,60.68
2023-05-16T05:11:41.581Z,56.95
2023-05-16T05:14:28.042Z,59.90
2023-05-16T05:17:14.639Z,63.68
2023-05-16T05:20:02.861Z,57.70
2023-05-16T05:22:49.523Z,60.21
2023-05-16T05:25:39.721Z,63.95
2023-05-16T05:28:26.541Z,61.62
2023-05-16T05:31:13.252Z,56.79
2023-05-16T05:33:59.889Z,59.07
2023-05-16T05:36:46.609Z,62.57
2023-05-16T05:39:32.785Z,61.62
2023-05-16T05:42:19.254Z,56.20
2023-05-16T05:45:06.524Z,58.92
2023-05-16T05:47:53.108Z,62.91
2023-05-16T05:50:39.996Z,62.96
2023-05-16T05:53:26.706Z,56.84
2023-05-16T05:56:13.306Z,58.82
2023-05-16T05:58:59.995Z,62.33
2023-05-16T06:01:46.939Z,62.66
2023-05-16T06:04:33.346Z,56.10
2023-05-16T06:07:19.883Z,58.09
2023-05-16T06:10:08.608Z,60.31
2023-05-16T06:12:55.138Z,63.94
2023-05-16T06:15:41.849Z,57.87
2023-05-16T06:18:28.299Z,56.95
2023-05-16T06:21:15.272Z,60.40
2023-05-16T06:24:01.606Z,63.17
2023-05-16T06:26:50.298Z,58.61
2023-05-16T06:29:36.702Z,57.11
2023-05-16T06:32:23.042Z,59.91
2023-05-16T06:35:09.828Z,62.69
2023-05-16T06:37:56.166Z,58.07
2023-05-16T06:40:42.992Z,59.27
2023-05-16T06:43:29.429Z,62.11
2023-05-16T06:46:16.598Z,62.89
2023-05-16T06:49:03.488Z,56.52
2023-05-16T06:51:50.142Z,58.56
2023-05-16T06:54:36.698Z,61.94
2023-05-16T06:57:23.629Z,61.31
2023-05-16T07:00:10.365Z,58.35
2023-05-16T07:02:57.006Z,61.13
2023-05-16T07:05:43.971Z,63.07
2023-05-16T07:08:30.493Z,57.89
2023-05-16T07:11:16.958Z,59.06
2023-05-16T07:14:03.650Z,62.36
2023-05-16T07:16:50.161Z,59.84
2023-05-16T07:19:36.541Z,56.50
2023-05-16T07:22:23.579Z,59.68
2023-05-16T07:25:12.932Z,62.65
2023-05-16T07:28:01.155Z,62.16
2023-05-16T07:30:47.595Z,55.89
2023-05-16T07:33:34.160Z,58.47
2023-05-16T07:36:21.297Z,61.92
2023-05-16T07:39:07.599Z,63.70
2023-05-16T07:41:54.297Z,56.83
2023-05-16T07:44:40.857Z,56.27
2023-05-16T07:47:27.462Z,58.66
2023-05-16T07:50:14.076Z,60.14
2023-05-16T07:53:00.461Z,60.93
2023-05-16T07:55:46.972Z,61.48
2023-05-16T07:58:34.379Z,61.77
2023-05-16T08:01:21.210Z,55.72
2023-05-16T08:04:10.920Z,56.50
2023-05-16T08:06:57.731Z,59.62
2023-05-16T08:09:44.296Z,61.12
2023-05-16T08:12:31.037Z,61.96
2023-05-16T08:15:17.515Z,62.66
2023-05-16T08:18:04.187Z,56.05
2023-05-16T08:20:51.912Z,56.62
2023-05-16T08:23:38.636Z,58.95
2023-05-16T08:26:25.319Z,60.67
2023-05-16T08:29:11.938Z,62.67
2023-05-16T08:31:58.173Z,57.03
2023-05-16T08:34:45.435Z,55.27
2023-05-16T08:37:31.869Z,57.36
2023-05-16T08:40:19.385Z,59.16
2023-05-16T08:43:06.795Z,60.10
2023-05-16T08:45:53.678Z,60.01
2023-05-16T08:48:43.574Z,60.16
2023-05-16T08:51:35.559Z,60.23
2023-05-16T08:54:22.859Z,59.40
2023-05-16T08:57:09.943Z,58.36
2023-05-16T08:59:59.336Z,58.34
2023-05-16T09:02:47.085Z,58.89
2023-05-16T09:05:34.171Z,58.76
2023-05-16T09:08:21.336Z,57.36
2023-05-16T09:11:08.327Z,57.45
2023-05-16T09:13:54.973Z,57.55
2023-05-16T09:16:42.189Z,56.68
2023-05-16T09:19:37.181Z,56.47
2023-05-16T09:22:24.523Z,55.44
2023-05-16T09:25:28.550Z,55.48
2023-05-16T09:28:17.237Z,56.14
2023-05-16T09:31:04.382Z,56.36
2023-05-16T09:33:50.921Z,55.99
2023-05-16T09:36:37.760Z,55.46
2023-05-16T09:39:27.988Z,56.09
2023-05-16T09:42:19.443Z,56.28
2023-05-16T09:45:06.588Z,56.90
2023-05-16T09:47:53.434Z,55.60
2023-05-16T09:50:40.123Z,55.83
2023-05-16T09:53:32.351Z,55.56
2023-05-16T09:56:18.728Z,55.05
2023-05-16T09:59:11.412Z,55.35
2023-05-16T10:02:01.918Z,54.27
2023-05-16T10:04:48.649Z,53.69
2023-05-16T10:07:38.258Z,54.45
2023-05-16T10:10:25.464Z,54.43
2023-05-16T10:13:14.422Z,53.42
2023-05-16T10:16:06.835Z,54.21
2023-05-16T10:18:54.547Z,54.74
2023-05-16T10:21:46.837Z,53.50
2023-05-16T10:24:46.681Z,52.65
2023-05-16T10:27:33.712Z,52.50
2023-05-16T10:30:21.392Z,52.25
2023-05-16T10:33:09.324Z,52.04
2023-05-16T10:35:56.859Z,52.16
2023-05-16T10:38:45.847Z,51.86
2023-05-16T10:41:34.124Z,50.99
2023-05-16T10:44:20.950Z,50.43
2023-05-16T10:47:07.863Z,50.23
2023-05-16T10:49:54.819Z,48.68
2023-05-16T10:52:41.907Z,48.86
2023-05-16T10:55:30.604Z,48.56
2023-05-16T10:58:24.999Z,47.19
2023-05-16T11:01:19.040Z,45.07
2023-05-16T11:04:11.576Z,45.78
2023-05-16T11:06:58.925Z,46.33
2023-05-16T11:09:46.541Z,47.07
2023-05-16T11:13:08.054Z,47.49
2023-05-16T11:16:31.271Z,47.05
2023-05-16T11:19:44.405Z,48.19
2023-05-16T11:22:34.489Z,48.66
2023-05-16T11:25:34.917Z,49.01
2023-05-16T11:28:22.853Z,49.79
2023-05-16T11:31:09.570Z,49.97
2023-05-16T11:33:56.946Z,49.32
2023-05-16T11:36:44.867Z,49.54
2023-05-16T11:39:32.742Z,49.77
2023-05-16T11:42:19.527Z,50.01
2023-05-16T11:45:07.788Z,50.10
2023-05-16T11:47:54.727Z,49.87
2023-05-16T11:50:42.460Z,50.31
2023-05-16T11:53:29.206Z,49.99
2023-05-16T11:56:15.658Z,49.82
2023-05-16T11:59:03.335Z,49.53
2023-05-16T12:01:50.584Z,49.92
2023-05-16T12:04:40.846Z,50.15
2023-05-16T12:07:31.102Z,51.01
2023-05-16T12:10:18.068Z,51.43
2023-05-16T12:13:04.788Z,51.65
2023-05-16T12:15:52.888Z,51.48
2023-05-16T12:18:43.367Z,51.46
2023-05-16T12:21:32.027Z,51.36
2023-05-16T12:24:18.631Z,51.72
2023-05-16T12:27:05.347Z,51.82
2023-05-16T12:29:52.624Z,51.44
2023-05-16T12:32:39.928Z,51.27
2023-05-16T12:35:31.191Z,50.81
2023-05-16T12:38:20.177Z,50.66
2023-05-16T12:41:07.208Z,49.94
2023-05-16T12:44:12.210Z,49.61
2023-05-16T12:46:59.232Z,49.55
2023-05-16T12:49:47.005Z,50.16
2023-05-16T12:52:33.835Z,51.03
2023-05-16T12:55:22.319Z,50.62
2023-05-16T12:58:09.605Z,51.76
2023-05-16T13:00:56.656Z,53.30
2023-05-16T13:03:43.162Z,53.63
2023-05-16T13:06:39.796Z,53.82
2023-05-16T13:09:33.057Z,53.16
2023-05-16T13:12:19.776Z,53.18
2023-05-16T13:15:08.013Z,53.54
2023-05-16T13:17:54.465Z,54.10
2023-05-16T13:20:41.036Z,54.00
2023-05-16T13:23:27.524Z,53.47
2023-05-16T13:26:14.245Z,52.50
2023-05-16T13:29:02.216Z,52.18
2023-05-16T13:31:48.645Z,51.00
2023-05-16T13:34:35.378Z,50.16
2023-05-16T13:37:24.399Z,50.46
2023-05-16T13:40:11.246Z,50.51
2023-05-16T13:42:57.576Z,50.52
2023-05-16T13:45:44.303Z,50.66
2023-05-16T13:48:31.171Z,50.96
2023-05-16T13:51:17.508Z,51.42
2023-05-16T13:54:04.422Z,51.62
2023-05-16T13:56:51.285Z,51.40
2023-05-16T14:00:05.614Z,50.61
2023-05-16T14:02:45.241Z,50.22
2023-05-16T14:05:32.854Z,49.67
2023-05-16T14:08:19.649Z,49.29
2023-05-16T14:11:06.290Z,48.46
2023-05-16T14:13:55.554Z,47.39
2023-05-16T14:16:45.922Z,46.97
2023-05-16T14:19:33.174Z,46.50
2023-05-16T14:22:19.937Z,45.75
2023-05-16T14:25:10.012Z,46.26
2023-05-16T14:27:56.671Z,47.10
2023-05-16T14:30:43.909Z,48.18
2023-05-16T14:33:32.850Z,48.25
2023-05-16T14:36:19.437Z,48.86
2023-05-16T14:39:06.446Z,49.66
2023-05-16T14:41:53.118Z,50.13
2023-05-16T14:44:39.817Z,50.89
2023-05-16T14:47:26.584Z,51.01
2023-05-16T14:50:13.293Z,50.97
2023-05-16T14:53:00.230Z,51.17
2023-05-16T14:55:48.163Z,51.11
2023-05-16T14:58:34.952Z,50.70
2023-05-16T15:01:22.677Z,50.37
2023-05-16T15:04:09.324Z,50.55
2023-05-16T15:06:56.203Z,50.64
2023-05-16T15:09:42.903Z,49.81
2023-05-16T15:12:30.405Z,50.32
2023-05-16T15:15:17.433Z,50.63
2023-05-16T15:18:04.392Z,51.16
2023-05-16T15:20:53.190Z,51.83
2023-05-16T15:23:41.971Z,52.10
2023-05-16T15:26:29.210Z,52.47
2023-05-16T15:29:16.974Z,53.14
2023-05-16T15:32:07.178Z,53.53
2023-05-16T15:34:53.480Z,53.98
2023-05-16T15:37:40.286Z,54.30
2023-05-16T15:40:27.587Z,54.34
2023-05-16T15:43:14.538Z,54.69
2023-05-16T15:46:01.696Z,55.16
2023-05-16T15:48:48.967Z,56.30
2023-05-16T15:51:36.615Z,56.20
2023-05-16T15:54:23.187Z,56.66
2023-05-16T15:57:10.087Z,57.43
2023-05-16T15:59:56.631Z,57.08
2023-05-16T16:02:45.374Z,57.01
2023-05-16T16:05:33.088Z,57.61
2023-05-16T16:08:20.549Z,58.14
2023-05-16T16:11:07.489Z,58.92
2023-05-16T16:13:54.201Z,58.73
2023-05-16T16:16:41.352Z,59.88
2023-05-16T16:19:28.214Z,61.01
2023-05-16T16:22:14.829Z,62.22
2023-05-16T16:25:01.422Z,58.00
2023-05-16T16:27:47.824Z,56.66
2023-05-16T16:30:34.674Z,58.07
2023-05-16T16:33:21.527Z,59.59
2023-05-16T16:36:09.615Z,60.62
2023-05-16T16:38:55.978Z,62.16
2023-05-16T16:41:43.278Z,60.82
2023-05-16T16:44:30.444Z,55.43
2023-05-16T16:47:17.712Z,56.39
2023-05-16T16:50:04.980Z,58.04
2023-05-16T16:52:54.295Z,59.56
2023-05-16T16:55:41.208Z,60.13
2023-05-16T16:58:28.161Z,60.89
2023-05-16T17:01:17.629Z,61.34
2023-05-16T17:04:04.466Z,61.81
2023-05-16T17:06:53.876Z,62.57
2023-05-16T17:09:42.371Z,55.35
2023-05-16T17:12:29.399Z,55.72
2023-05-16T17:15:19.929Z,57.79
2023-05-16T17:18:07.798Z,59.75
2023-05-16T17:20:55.937Z,60.73
2023-05-16T17:23:44.144Z,62.03
2023-05-16T17:26:31.716Z,61.76
2023-05-16T17:29:18.369Z,55.29
2023-05-16T17:32:06.337Z,56.58
2023-05-16T17:34:54.665Z,59.43
2023-05-16T17:37:42.428Z,61.60
2023-05-16T17:40:29.069Z,63.75
2023-05-16T17:43:15.649Z,57.43
2023-05-16T17:46:02.515Z,56.23
2023-05-16T17:48:49.166Z,59.31
2023-05-16T17:51:53.467Z,62.03
2023-05-16T17:54:40.055Z,66.16
2023-05-16T17:57:28.229Z,59.15
2023-05-16T18:00:15.480Z,55.89
2023-05-16T18:03:02.381Z,58.11
2023-05-16T18:05:50.481Z,60.38
2023-05-16T18:08:37.436Z,62.96
2023-05-16T18:11:24.892Z,60.86
2023-05-16T18:14:14.558Z,55.75
2023-05-16T18:17:01.451Z,58.15
2023-05-16T18:19:47.944Z,59.93
2023-05-16T18:22:39.105Z,64.57
2023-05-16T18:25:26.657Z,61.46
2023-05-16T18:28:13.678Z,55.00
2023-05-16T18:31:00.081Z,56.67
2023-05-16T18:33:47.170Z,59.53
2023-05-16T18:36:34.364Z,61.51
2023-05-16T18:39:21.094Z,67.23
2023-05-16T18:42:07.926Z,62.17
2023-05-16T18:44:54.474Z,55.12
2023-05-16T18:47:41.444Z,55.91
2023-05-16T18:50:28.443Z,57.10
2023-05-16T18:53:15.321Z,60.48
2023-05-16T18:56:02.131Z,62.06
2023-05-16T18:58:48.901Z,65.18
2023-05-16T19:01:35.814Z,60.43
2023-05-16T19:04:22.432Z,53.73
2023-05-16T19:07:09.429Z,54.49
2023-05-16T19:09:56.354Z,57.98
2023-05-16T19:12:46.683Z,59.84
2023-05-16T19:15:47.123Z,61.17
2023-05-16T19:18:35.337Z,67.08
2023-05-16T19:21:22.283Z,61.95
2023-05-16T19:24:09.338Z,54.74
2023-05-16T19:26:55.798Z,56.13
2023-05-16T19:29:42.517Z,58.62
2023-05-16T19:32:30.320Z,60.70
2023-05-16T19:35:18.587Z,66.30
2023-05-16T19:38:05.183Z,64.04
2023-05-16T19:40:53.312Z,55.55
2023-05-16T19:43:40.615Z,56.55
2023-05-16T19:46:27.295Z,59.61
2023-05-16T19:49:14.894Z,61.20
2023-05-16T19:52:02.983Z,65.72
2023-05-16T19:54:49.352Z,60.84
2023-05-16T19:57:36.860Z,55.54
2023-05-16T20:00:24.155Z,57.62
2023-05-16T20:03:11.458Z,59.94
2023-05-16T20:05:58.219Z,61.05
2023-05-16T20:08:44.928Z,67.02
2023-05-16T20:11:31.542Z,63.05
2023-05-16T20:14:18.338Z,56.05
2023-05-16T20:17:05.225Z,57.23
2023-05-16T20:19:51.955Z,60.65
2023-05-16T20:22:39.531Z,64.92
2023-05-16T20:25:27.103Z,61.34
2023-05-16T20:28:17.309Z,55.04
2023-05-16T20:31:04.150Z,55.87
2023-05-16T20:33:51.192Z,58.95
2023-05-16T20:36:41.984Z,63.90
2023-05-16T20:39:31.972Z,65.49
2023-05-16T20:42:18.919Z,59.27
2023-05-16T20:45:09.086Z,54.38
2023-05-16T20:47:57.300Z,56.31
2023-05-16T20:50:44.186Z,58.62
2023-05-16T20:53:31.208Z,61.47
2023-05-16T20:56:17.997Z,66.54
2023-05-16T20:59:14.831Z,61.82
2023-05-16T21:02:06.187Z,55.70
2023-05-16T21:05:02.164Z,56.28
2023-05-16T21:07:57.711Z,59.04
2023-05-16T21:10:45.873Z,61.20
2023-05-16T21:13:43.307Z,68.07
2023-05-16T21:16:32.749Z,63.15
2023-05-16T21:19:22.450Z,55.31
2023-05-16T21:22:17.543Z,54.64
2023-05-16T21:25:05.927Z,57.38
2023-05-16T21:27:54.816Z,60.00
2023-05-16T21:30:42.938Z,61.37
2023-05-16T21:33:40.801Z,67.33
2023-05-16T21:36:28.210Z,60.87
2023-05-16T21:39:17.612Z,54.23
2023-05-16T21:42:08.463Z,56.08
2023-05-16T21:45:02.585Z,58.09
2023-05-16T21:47:57.505Z,58.64
2023-05-16T21:50:44.156Z,61.09
2023-05-16T21:56:40.025Z,66.16
2023-05-16T21:59:30.995Z,59.90
2023-05-16T22:02:22.964Z,53.77
2023-05-16T22:05:14.988Z,54.60
2023-05-16T22:08:07.045Z,57.06
2023-05-16T22:11:02.566Z,58.35
2023-05-16T22:13:53.796Z,60.29
2023-05-16T22:16:49.317Z,67.46
2023-05-16T22:19:56.244Z,63.35
2023-05-16T22:23:01.584Z,55.05
2023-05-16T22:25:48.830Z,55.34
2023-05-16T22:28:45.963Z,58.33
2023-05-16T22:31:32.469Z,61.99
2023-05-16T22:34:19.019Z,66.31
2023-05-16T22:37:08.963Z,59.91
2023-05-16T22:40:04.010Z,53.57
2023-05-16T22:42:53.998Z,55.42
2023-05-16T22:45:47.682Z,57.53
2023-05-16T22:48:38.054Z,59.96
2023-05-16T22:51:28.867Z,62.37
2023-05-16T22:54:18.375Z,68.47
2023-05-16T22:57:07.199Z,60.52
2023-05-16T22:59:57.694Z,54.88
2023-05-16T23:02:47.988Z,54.24
2023-05-16T23:05:37.937Z,55.57
2023-05-16T23:08:29.392Z,58.17
2023-05-16T23:11:20.491Z,61.24
2023-05-16T23:14:10.148Z,68.76
2023-05-16T23:16:58.629Z,59.33
2023-05-16T23:19:47.219Z,55.79
2023-05-16T23:22:46.779Z,59.32
2023-05-16T23:26:04.437Z,60.23
2023-05-16T23:28:54.403Z,67.71
2023-05-16T23:31:50.103Z,64.03
2023-05-16T23:34:36.943Z,54.97
2023-05-16T23:37:26.629Z,55.54
2023-05-16T23:40:18.447Z,59.93
2023-05-16T23:43:06.295Z,62.51
2023-05-16T23:45:58.426Z,65.91
2023-05-16T23:48:47.349Z,62.16
2023-05-16T23:51:55.934Z,54.94
2023-05-16T23:54:46.937Z,56.15
2023-05-16T23:57:33.495Z,58.27
